KFCM/FCM METAR and TAF weather

Enter ICAO airport designator
Station Type Date Time Source
KFCM METAR 2022/06/28 14:53 UTC NOAA

KFCM 281453Z 00000KT 10SM -RA FEW055 FEW075 OVC100 21/13 A3008 RMK AO2 RAB49 SLP181 P0000 60000 T02110128 58002


Station Type Date Time Source
KFCM Decoded METAR 2022/06/28 14:53 UTC NOAA

Minneapolis, Flying Cloud Airport, MN, United States (KFCM) 44-49-56N 093-28-13W 280M
Jun 28, 2022 - 10:53 AM EDT / 2022.06.28 1453 UTC
Wind: Calm:0
Visibility: 10 mile(s):0
Sky conditions: overcast
Weather: light rain
Precipitation last hour: A trace
Temperature: 70.0 F (21.1 C)
Dew Point: 55.0 F (12.8 C)
Relative Humidity: 59%
Pressure (altimeter): 30.08 in. Hg (1018 hPa)
Pressure tendency: 0.01 inches (0.2 hPa) lower than three hours ago
ob: KFCM 281453Z 00000KT 10SM -RA FEW055 FEW075 OVC100 21/13 A3008 RMK AO2 RAB49 SLP181 P0000 60000 T02110128 58002
cycle: 15

Station Type Date Time Source
KFCM TAF 2018/02/05 20:59 UTC NOAA

TAF
AMD KFCM 051959Z 0520/0618 27007KT 6SM -SHSN BKN020 OVC050
TEMPO 0520/0522 SCT020 BKN050
FM052200 27007KT P6SM FEW020 BKN100
FM060100 31007KT P6SM FEW200
FM061000 VRB03KT P6SM FEW250
AMD NOT SKED

Example: see airport list